Time;durP1;ratioP1;P1;durP2;ratioP2;P2;SDS_P1;SDS_P2;PMS_P1;PMS_P2;Temp;Humidity;BMP_temperature;BMP_pressure;BME280_temperature;BME280_humidity;BME280_pressure;Samples;Min_cycle;Max_cycle;Signal;HPM_P1;HPM_P2
2023/02/11 00:00:30;;;;;;;;;;;;;;;21.98;13.69;99608.53;5065888;28;1981;-80
2023/02/11 00:02:55;;;;;;;;;;;;;;;22.31;13.46;99596.69;5088735;28;1091;-79
2023/02/11 00:05:21;;;;;;;;;;;;;;;22.51;13.43;99601.88;5056482;28;913;-80
2023/02/11 00:07:46;;;;;;;;;;;;;;;22.19;13.69;99599.19;5074540;28;1489;-79
2023/02/11 00:10:11;;;;;;;;;;;;;;;22.45;13.22;99589.34;5090861;28;1180;-80
2023/02/11 00:12:37;;;;;;;;;;;;;;;22.07;13.54;99603.22;5076402;28;926;-80
2023/02/11 00:15:03;;;;;;;;;;;;;;;22.22;13.39;99595.50;5076287;28;852;-80
2023/02/11 00:17:28;;;;;;;;;;;;;;;22.68;13.22;99597.31;5075596;28;1416;-80
2023/02/11 00:19:54;;;;;;;;;;;;;;;22.54;13.20;99590.50;5076476;28;1984;-79
2023/02/11 00:22:19;;;;;;;;;;;;;;;22.71;12.99;99588.78;5076249;28;927;-80
2023/02/11 00:24:44;;;;;;;;;;;;;;;22.53;13.24;99582.41;5090063;28;939;-80
2023/02/11 00:27:10;;;;;;;;;;;;;;;22.46;13.10;99588.13;5075290;28;1386;-80
2023/02/11 00:29:36;;;;;;;;;;;;;;;22.19;13.36;99585.00;5075977;28;861;-80
2023/02/11 00:32:04;;;;;;;;;;;;;;;22.51;13.01;99582.81;5076261;28;930;-79
2023/02/11 00:34:30;;;;;;;;;;;;;;;22.33;13.29;99580.09;5076689;28;912;-80
2023/02/11 00:36:55;;;;;;;;;;;;;;;22.43;13.17;99583.25;5068390;28;1395;-80
2023/02/11 00:39:20;;;;;;;;;;;;;;;22.97;12.90;99580.94;5103015;28;1917;-80
2023/02/11 00:41:46;;;;;;;;;;;;;;;22.66;12.93;99577.88;5074582;28;913;-80
2023/02/11 00:44:11;;;;;;;;;;;;;;;22.72;12.98;99583.91;5076277;28;880;-80
2023/02/11 00:46:38;;;;;;;;;;;;;;;22.17;13.29;99565.53;5074522;28;1683;-80
2023/02/11 00:49:03;;;;;;;;;;;;;;;22.77;12.87;99570.09;5076331;28;905;-80
2023/02/11 00:51:29;;;;;;;;;;;;;;;22.92;12.85;99575.72;5076035;28;858;-80
2023/02/11 00:53:54;;;;;;;;;;;;;;;22.49;13.10;99578.78;5074741;28;1175;-80
2023/02/11 00:56:21;;;;;;;;;;;;;;;22.45;13.22;99569.50;5068655;28;1332;-80
2023/02/11 00:58:47;;;;;;;;;;;;;;;22.47;12.99;99572.72;5055501;28;861;-80
2023/02/11 01:01:13;;;;;;;;;;;;;;;22.32;13.10;99567.09;5054846;28;1902;-79
2023/02/11 01:03:38;;;;;;;;;;;;;;;22.74;12.96;99553.91;5055653;28;1013;-80
2023/02/11 01:06:04;;;;;;;;;;;;;;;22.15;13.35;99568.00;5073558;28;1431;-80
2023/02/11 01:08:30;;;;;;;;;;;;;;;22.48;13.20;99562.97;5074406;28;1191;-80
2023/02/11 01:11:02;;;;;;;;;;;;;;;22.33;13.19;99563.06;5075926;28;925;-79
2023/02/11 01:13:28;;;;;;;;;;;;;;;22.56;13.13;99570.22;5074682;28;1940;-80
2023/02/11 01:15:54;;;;;;;;;;;;;;;22.39;13.09;99568.31;5073261;28;1517;-80
2023/02/11 01:18:19;;;;;;;;;;;;;;;22.52;13.18;99563.75;5054222;28;967;-80
2023/02/11 01:20:44;;;;;;;;;;;;;;;22.67;12.86;99551.13;5056149;28;1891;-81
2023/02/11 01:23:10;;;;;;;;;;;;;;;22.80;12.78;99551.44;5055525;28;849;-79
2023/02/11 01:25:35;;;;;;;;;;;;;;;22.58;13.20;99545.88;5093388;28;918;-80
2023/02/11 01:28:02;;;;;;;;;;;;;;;22.18;13.17;99544.50;5093033;28;1335;-80
2023/02/11 01:30:29;;;;;;;;;;;;;;;22.03;13.69;99537.25;5093422;28;970;-80
2023/02/11 01:32:54;;;;;;;;;;;;;;;22.08;13.62;99529.13;5093209;28;1028;-80
2023/02/11 01:35:20;;;;;;;;;;;;;;;22.54;12.95;99532.97;5094977;28;966;-80
2023/02/11 01:37:45;;;;;;;;;;;;;;;22.87;12.71;99534.34;5112944;28;1352;-80
2023/02/11 01:40:12;;;;;;;;;;;;;;;22.96;12.54;99537.56;5110049;28;1898;-79
2023/02/11 01:42:37;;;;;;;;;;;;;;;22.18;13.48;99538.84;5096769;28;955;-80
2023/02/11 01:45:23;;;;;;;;;;;;;;;22.17;13.36;99527.88;5080050;28;1184;-79
2023/02/11 01:47:48;;;;;;;;;;;;;;;22.28;13.40;99537.16;5052655;28;1332;-80
2023/02/11 01:50:14;;;;;;;;;;;;;;;22.40;13.29;99521.72;5056361;28;955;-80
2023/02/11 01:52:39;;;;;;;;;;;;;;;22.41;13.22;99540.34;5039869;28;940;-80
2023/02/11 01:57:51;;;;;;;;;;;;;;;22.48;13.14;99537.44;5016880;28;1001;-80
2023/02/11 02:00:36;;;;;;;;;;;;;;;22.48;13.31;99532.56;5017520;28;1987;-80
2023/02/11 02:03:09;;;;;;;;;;;;;;;22.54;12.91;99527.31;5020089;28;1260;-80
2023/02/11 02:05:34;;;;;;;;;;;;;;;22.49;13.02;99536.25;5015968;28;1429;-80
2023/02/11 02:08:00;;;;;;;;;;;;;;;22.78;12.59;99523.47;5016354;28;963;-80
2023/02/11 02:10:26;;;;;;;;;;;;;;;22.14;13.34;99525.91;5016717;28;968;-80
2023/02/11 02:12:51;;;;;;;;;;;;;;;22.57;12.84;99532.94;5000547;28;970;-80
2023/02/11 02:15:17;;;;;;;;;;;;;;;22.02;13.15;99529.94;5022474;28;1344;-80
2023/02/11 02:17:45;;;;;;;;;;;;;;;21.97;13.06;99525.53;5036325;28;1202;-80
2023/02/11 02:20:23;;;;;;;;;;;;;;;22.57;12.77;99532.13;5019662;28;1973;-80
2023/02/11 02:23:07;;;;;;;;;;;;;;;22.25;13.01;99533.13;5019967;28;874;-80
2023/02/11 02:25:51;;;;;;;;;;;;;;;22.61;12.87;99538.59;5060100;28;1458;-80
2023/02/11 02:28:28;;;;;;;;;;;;;;;22.61;12.74;99538.59;5058482;28;936;-80
2023/02/11 02:30:53;;;;;;;;;;;;;;;22.61;12.81;99538.59;5058808;28;839;-79
2023/02/11 02:33:28;;;;;;;;;;;;;;;22.82;12.72;99538.44;5058582;28;875;-80
2023/02/11 02:35:59;;;;;;;;;;;;;;;22.01;13.39;99534.00;5058299;28;1343;-80
2023/02/11 02:38:37;;;;;;;;;;;;;;;22.54;12.83;99541.47;5058205;28;839;-80
2023/02/11 02:41:05;;;;;;;;;;;;;;;22.58;13.09;99540.22;5058200;28;1979;-80
2023/02/11 02:43:30;;;;;;;;;;;;;;;22.55;13.10;99540.25;5058359;28;907;-79
2023/02/11 02:46:08;;;;;;;;;;;;;;;22.83;12.52;99540.06;5089805;28;1336;-80
2023/02/11 02:48:36;;;;;;;;;;;;;;;22.68;12.54;99547.03;5057706;28;972;-80
2023/02/11 02:51:08;;;;;;;;;;;;;;;22.25;13.24;99538.78;5058037;28;913;-80
2023/02/11 02:53:42;;;;;;;;;;;;;;;22.56;12.77;99547.53;5058157;28;906;-80
2023/02/11 02:56:13;;;;;;;;;;;;;;;22.39;12.86;99554.13;5057668;28;1319;-80
2023/02/11 02:58:43;;;;;;;;;;;;;;;22.47;12.82;99547.97;5090064;28;929;-79
2023/02/11 03:01:17;;;;;;;;;;;;;;;22.72;12.48;99539.31;5090474;28;1887;-80
2023/02/11 03:04:18;;;;;;;;;;;;;;;22.59;12.87;99541.03;5057781;28;968;-80
2023/02/11 03:07:02;;;;;;;;;;;;;;;21.96;13.18;99542.94;5091252;28;1420;-80
2023/02/11 03:09:30;;;;;;;;;;;;;;;22.68;12.58;99537.72;5095704;28;972;-80
2023/02/11 03:11:55;;;;;;;;;;;;;;;22.22;13.18;99533.94;5062044;28;961;-80
2023/02/11 03:14:21;;;;;;;;;;;;;;;22.60;12.58;99536.97;5095729;28;971;-80
2023/02/11 03:16:46;;;;;;;;;;;;;;;23.14;12.22;99540.25;5077739;28;1325;-80
2023/02/11 03:19:13;;;;;;;;;;;;;;;22.35;13.10;99535.09;5058324;28;1906;-80
2023/02/11 03:21:39;;;;;;;;;;;;;;;22.75;12.51;99538.50;5058373;28;1154;-80
2023/02/11 03:24:24;;;;;;;;;;;;;;;22.62;12.62;99545.88;5074795;28;938;-79
2023/02/11 03:26:53;;;;;;;;;;;;;;;22.23;13.08;99534.75;5074471;28;1092;-80
2023/02/11 03:29:37;;;;;;;;;;;;;;;22.19;13.03;99534.78;5074724;28;1273;-80
2023/02/11 03:32:03;;;;;;;;;;;;;;;22.04;13.21;99539.66;5089962;28;1336;-80
2023/02/11 03:34:40;;;;;;;;;;;;;;;22.64;12.38;99537.78;5078012;28;1362;-80
2023/02/11 03:37:06;;;;;;;;;;;;;;;22.70;12.56;99533.28;5074814;28;987;-79
2023/02/11 03:39:38;;;;;;;;;;;;;;;22.82;12.25;99529.94;5074165;28;1910;-79
2023/02/11 03:42:04;;;;;;;;;;;;;;;22.79;12.31;99533.59;5089114;28;927;-80
2023/02/11 03:44:32;;;;;;;;;;;;;;;22.90;12.25;99532.72;5107697;28;1306;-80
2023/02/11 03:46:57;;;;;;;;;;;;;;;22.62;12.25;99534.53;5109688;28;835;-79
2023/02/11 03:49:23;;;;;;;;;;;;;;;22.69;12.60;99523.16;5091993;28;971;-80
2023/02/11 03:51:49;;;;;;;;;;;;;;;22.57;12.52;99526.44;5109923;28;822;-80
2023/02/11 03:54:15;;;;;;;;;;;;;;;22.65;12.48;99530.88;5109554;28;877;-80
2023/02/11 03:56:44;;;;;;;;;;;;;;;22.38;12.83;99535.47;5108629;28;1414;-80
2023/02/11 03:59:10;;;;;;;;;;;;;;;22.55;12.84;99531.75;5098114;28;1984;-80
2023/02/11 04:01:35;;;;;;;;;;;;;;;22.38;12.72;99532.63;5109164;28;919;-80
2023/02/11 04:04:01;;;;;;;;;;;;;;;22.70;12.28;99529.63;5076366;28;804;-80
2023/02/11 04:06:26;;;;;;;;;;;;;;;22.45;12.65;99524.09;5076593;28;1033;-80
2023/02/11 04:08:52;;;;;;;;;;;;;;;22.51;12.63;99522.44;5076834;28;921;-80
2023/02/11 04:11:17;;;;;;;;;;;;;;;22.18;12.83;99527.50;5077011;28;912;-80
2023/02/11 04:13:43;;;;;;;;;;;;;;;22.07;12.76;99516.19;5105720;28;1525;-80
2023/02/11 04:16:08;;;;;;;;;;;;;;;22.18;12.79;99521.03;5076528;28;952;-80
2023/02/11 04:18:33;;;;;;;;;;;;;;;22.29;12.72;99522.56;5076066;28;835;-79
2023/02/11 04:20:59;;;;;;;;;;;;;;;22.34;12.65;99524.97;5076190;28;1882;-80
2023/02/11 04:23:24;;;;;;;;;;;;;;;22.24;12.89;99519.38;5076497;28;958;-80
2023/02/11 04:25:50;;;;;;;;;;;;;;;22.40;12.84;99511.16;5074484;28;1379;-80
2023/02/11 04:28:16;;;;;;;;;;;;;;;21.99;12.92;99508.09;5106225;28;1353;-79
2023/02/11 04:30:41;;;;;;;;;;;;;;;22.30;12.79;99512.03;5076132;28;882;-80
2023/02/11 04:33:06;;;;;;;;;;;;;;;22.12;13.00;99503.59;5075909;28;919;-79
2023/02/11 04:35:32;;;;;;;;;;;;;;;22.16;13.03;99507.25;5076385;28;907;-80
2023/02/11 04:37:57;;;;;;;;;;;;;;;22.39;12.74;99497.41;5075838;28;976;-80
2023/02/11 04:40:23;;;;;;;;;;;;;;;22.56;12.51;99499.31;5075896;28;1898;-80
2023/02/11 04:42:48;;;;;;;;;;;;;;;21.81;13.39;99497.66;5075386;28;1348;-80
2023/02/11 04:45:14;;;;;;;;;;;;;;;22.63;12.44;99502.09;5075861;28;904;-79
2023/02/11 04:47:39;;;;;;;;;;;;;;;22.15;12.99;99499.97;5076570;28;865;-80
2023/02/11 04:50:05;;;;;;;;;;;;;;;22.36;12.72;99497.00;5076223;28;893;-80
2023/02/11 04:52:30;;;;;;;;;;;;;;;22.14;12.80;99503.22;5076037;28;889;-80
2023/02/11 04:54:55;;;;;;;;;;;;;;;21.96;12.90;99491.91;5093482;28;1201;-80
2023/02/11 04:57:21;;;;;;;;;;;;;;;21.87;13.24;99494.41;5088450;28;938;-80
2023/02/11 04:59:47;;;;;;;;;;;;;;;22.38;12.53;99495.78;5055884;28;1981;-80
2023/02/11 05:02:13;;;;;;;;;;;;;;;22.71;12.39;99498.00;5055983;28;998;-80
2023/02/11 05:04:38;;;;;;;;;;;;;;;22.16;12.84;99493.06;5088118;28;914;-80
2023/02/11 05:07:04;;;;;;;;;;;;;;;22.55;12.62;99500.53;5055732;28;1041;-80
2023/02/11 05:09:29;;;;;;;;;;;;;;;22.69;12.36;99488.25;5055954;28;865;-79
2023/02/11 05:11:54;;;;;;;;;;;;;;;22.32;12.81;99492.56;5091137;28;948;-80
2023/02/11 05:14:20;;;;;;;;;;;;;;;22.45;12.78;99496.56;5078455;28;1102;-80
2023/02/11 05:16:45;;;;;;;;;;;;;;;22.74;12.46;99491.50;5079185;28;1122;-81
2023/02/11 05:19:11;;;;;;;;;;;;;;;22.29;12.68;99488.53;5077280;28;1898;-80
2023/02/11 05:21:36;;;;;;;;;;;;;;;22.91;12.16;99491.78;5077995;28;1213;-79
2023/02/11 05:24:02;;;;;;;;;;;;;;;22.23;12.87;99484.53;5078694;28;1217;-80
2023/02/11 05:26:27;;;;;;;;;;;;;;;21.94;13.06;99488.69;5078867;28;1205;-80
2023/02/11 05:28:53;;;;;;;;;;;;;;;22.58;12.74;99494.03;5078081;28;1421;-80
2023/02/11 05:31:18;;;;;;;;;;;;;;;22.68;12.47;99489.50;5061334;28;1205;-80
2023/02/11 05:33:44;;;;;;;;;;;;;;;22.05;12.91;99495.13;5078492;28;1295;-80
2023/02/11 05:36:10;;;;;;;;;;;;;;;22.32;12.67;99487.69;5078553;28;1240;-80
2023/02/11 05:38:35;;;;;;;;;;;;;;;22.08;12.69;99494.31;5102480;28;1259;-80
2023/02/11 05:41:01;;;;;;;;;;;;;;;22.38;12.64;99501.44;5077205;28;1974;-81
2023/02/11 05:43:26;;;;;;;;;;;;;;;22.24;12.62;99488.97;5077174;28;1200;-80
2023/02/11 05:45:52;;;;;;;;;;;;;;;22.56;12.36;99497.28;5074027;28;1319;-81
2023/02/11 05:48:17;;;;;;;;;;;;;;;22.37;12.72;99492.13;5078480;28;1197;-80
2023/02/11 05:50:43;;;;;;;;;;;;;;;22.48;12.70;99494.91;5103141;28;1251;-80
2023/02/11 05:53:08;;;;;;;;;;;;;;;22.23;12.61;99495.88;5055890;28;1245;-80
2023/02/11 05:55:34;;;;;;;;;;;;;;;22.32;12.73;99496.22;5057180;28;913;-81
2023/02/11 05:57:59;;;;;;;;;;;;;;;22.32;12.52;99499.03;5056559;28;997;-80
2023/02/11 06:00:25;;;;;;;;;;;;;;;22.18;12.75;99507.66;5056640;28;1910;-80
2023/02/11 06:02:50;;;;;;;;;;;;;;;21.98;12.93;99506.50;5057045;28;1159;-81
2023/02/11 06:05:16;;;;;;;;;;;;;;;21.91;12.90;99515.00;5056264;28;993;-80
2023/02/11 06:07:41;;;;;;;;;;;;;;;22.49;12.40;99510.72;5056682;28;1009;-80
2023/02/11 06:10:07;;;;;;;;;;;;;;;22.36;12.59;99522.53;5056823;28;946;-80
2023/02/11 06:12:32;;;;;;;;;;;;;;;22.54;12.38;99521.63;5056680;28;1052;-81
2023/02/11 06:14:58;;;;;;;;;;;;;;;22.07;13.16;99516.19;5056409;28;907;-80
2023/02/11 06:17:24;;;;;;;;;;;;;;;21.97;12.89;99511.38;5056566;28;955;-81
2023/02/11 06:19:49;;;;;;;;;;;;;;;22.31;12.90;99514.44;5056266;28;1910;-80
2023/02/11 06:22:15;;;;;;;;;;;;;;;22.12;13.07;99511.31;5055148;28;1098;-81
2023/02/11 06:24:40;;;;;;;;;;;;;;;22.56;12.51;99507.81;5073002;28;920;-81
2023/02/11 06:27:06;;;;;;;;;;;;;;;22.47;12.71;99511.13;5077351;28;1099;-80
2023/02/11 06:29:31;;;;;;;;;;;;;;;22.48;12.75;99512.72;5078821;28;890;-81
2023/02/11 06:31:57;;;;;;;;;;;;;;;22.60;12.41;99508.63;5111425;28;905;-80
2023/02/11 06:34:22;;;;;;;;;;;;;;;22.51;12.35;99500.56;5094667;28;815;-80
2023/02/11 06:36:47;;;;;;;;;;;;;;;22.57;12.21;99506.59;5078900;28;849;-80
2023/02/11 06:39:13;;;;;;;;;;;;;;;22.29;12.47;99510.44;5078465;28;1972;-80
2023/02/11 06:41:38;;;;;;;;;;;;;;;22.33;12.45;99499.88;5078550;28;899;-81
2023/02/11 06:44:04;;;;;;;;;;;;;;;22.05;12.84;99495.91;5111235;28;886;-80
2023/02/11 06:46:29;;;;;;;;;;;;;;;22.56;12.55;99496.47;5110933;28;915;-81
2023/02/11 06:48:55;;;;;;;;;;;;;;;22.12;12.72;99500.78;5078637;28;848;-80
2023/02/11 06:51:20;;;;;;;;;;;;;;;22.09;12.77;99501.59;5111030;28;777;-80
2023/02/11 06:53:46;;;;;;;;;;;;;;;22.44;12.20;99494.94;5078140;28;899;-81
2023/02/11 06:56:12;;;;;;;;;;;;;;;22.48;12.58;99500.56;5077028;28;848;-80
2023/02/11 06:58:38;;;;;;;;;;;;;;;22.64;12.23;99503.72;5110390;28;1053;-80
2023/02/11 07:01:05;;;;;;;;;;;;;;;22.38;12.24;99507.91;5078340;28;1918;-81
2023/02/11 07:03:31;;;;;;;;;;;;;;;22.54;12.63;99496.91;5110131;28;839;-81
2023/02/11 07:05:57;;;;;;;;;;;;;;;22.43;12.56;99510.31;5110640;28;1227;-81
2023/02/11 07:08:22;;;;;;;;;;;;;;;22.21;12.58;99515.31;5077741;28;1018;-80
2023/02/11 07:10:47;;;;;;;;;;;;;;;22.49;12.62;99503.00;5077798;28;977;-78
2023/02/11 07:13:13;;;;;;;;;;;;;;;22.16;12.89;99506.44;5078012;28;965;-80
2023/02/11 07:15:38;;;;;;;;;;;;;;;22.70;12.10;99510.56;5077671;28;953;-80
2023/02/11 07:18:04;;;;;;;;;;;;;;;22.39;12.44;99498.22;5077364;28;840;-80
2023/02/11 07:20:29;;;;;;;;;;;;;;;22.43;12.38;99504.66;5077874;28;1890;-80
2023/02/11 07:22:55;;;;;;;;;;;;;;;22.24;12.79;99500.31;5077812;28;877;-80
2023/02/11 07:25:21;;;;;;;;;;;;;;;22.74;12.42;99502.84;5077676;28;897;-80
2023/02/11 07:27:46;;;;;;;;;;;;;;;22.99;11.90;99501.84;5077731;28;972;-80
2023/02/11 07:30:12;;;;;;;;;;;;;;;22.19;12.55;99500.75;5109287;28;1044;-81
2023/02/11 07:32:37;;;;;;;;;;;;;;;22.34;12.81;99488.13;5077155;28;1068;-80
2023/02/11 07:35:03;;;;;;;;;;;;;;;23.06;12.29;99496.13;5076951;28;1177;-80
2023/02/11 07:37:28;;;;;;;;;;;;;;;22.90;12.08;99493.00;5077280;28;932;-80
2023/02/11 07:39:54;;;;;;;;;;;;;;;22.40;12.61;99485.63;5076804;28;1913;-80
2023/02/11 07:42:19;;;;;;;;;;;;;;;22.21;12.71;99480.47;5077171;28;921;-80
2023/02/11 07:44:45;;;;;;;;;;;;;;;22.59;12.31;99487.16;5076771;28;1252;-80
2023/02/11 07:47:10;;;;;;;;;;;;;;;22.63;12.36;99490.75;5077413;28;896;-80
2023/02/11 07:49:36;;;;;;;;;;;;;;;22.35;12.84;99475.53;5077293;28;851;-81
2023/02/11 07:52:01;;;;;;;;;;;;;;;22.17;12.66;99474.81;5077212;28;876;-80
2023/02/11 07:54:27;;;;;;;;;;;;;;;22.75;12.19;99476.06;5077074;28;853;-80
2023/02/11 07:56:52;;;;;;;;;;;;;;;22.85;12.06;99475.19;5076896;28;924;-80
2023/02/11 07:59:18;;;;;;;;;;;;;;;22.96;12.23;99480.00;5108275;28;2282;-80
2023/02/11 08:01:43;;;;;;;;;;;;;;;22.57;12.19;99475.38;5076614;28;916;-80
2023/02/11 08:04:09;;;;;;;;;;;;;;;22.99;12.06;99474.25;5114763;28;918;-80
2023/02/11 08:06:34;;;;;;;;;;;;;;;22.43;12.33;99470.63;5114713;28;1047;-80
2023/02/11 08:09:03;;;;;;;;;;;;;;;22.80;12.19;99469.16;5115060;28;1011;-80
2023/02/11 08:11:30;;;;;;;;;;;;;;;23.04;12.05;99475.84;5115169;28;1062;-80
2023/02/11 08:13:55;;;;;;;;;;;;;;;22.11;12.69;99465.16;5114504;28;945;-80
2023/02/11 08:16:22;;;;;;;;;;;;;;;22.25;12.62;99467.91;5115247;28;956;-80
2023/02/11 08:18:47;;;;;;;;;;;;;;;22.75;12.12;99469.59;5114506;28;937;-80
2023/02/11 08:21:13;;;;;;;;;;;;;;;22.62;12.55;99472.91;5114635;28;1909;-81
2023/02/11 08:23:39;;;;;;;;;;;;;;;22.77;12.67;99467.94;5114547;28;934;-80
2023/02/11 08:26:05;;;;;;;;;;;;;;;23.19;11.99;99476.53;5097794;28;1052;-80
2023/02/11 08:28:30;;;;;;;;;;;;;;;22.82;12.18;99470.31;5114703;28;1117;-80
2023/02/11 08:30:56;;;;;;;;;;;;;;;22.61;12.70;99476.97;5098246;28;977;-80
2023/02/11 08:33:21;;;;;;;;;;;;;;;22.86;12.30;99465.44;5115206;28;1016;-79
2023/02/11 08:35:47;;;;;;;;;;;;;;;22.95;12.19;99472.69;5085425;28;989;-80
2023/02/11 08:38:12;;;;;;;;;;;;;;;22.91;12.38;99460.56;5075984;28;870;-80
2023/02/11 08:40:38;;;;;;;;;;;;;;;22.69;12.98;99472.06;5108977;28;1992;-80
2023/02/11 08:43:03;;;;;;;;;;;;;;;22.61;12.63;99464.81;5076091;28;907;-80
2023/02/11 08:45:28;;;;;;;;;;;;;;;22.84;12.40;99465.03;5075011;28;868;-80
2023/02/11 08:47:54;;;;;;;;;;;;;;;22.94;12.37;99465.41;5076317;28;963;-80
2023/02/11 08:50:19;;;;;;;;;;;;;;;22.67;12.50;99457.47;5076212;28;953;-78
2023/02/11 08:52:45;;;;;;;;;;;;;;;22.79;12.47;99459.81;5076305;28;896;-80
2023/02/11 08:55:10;;;;;;;;;;;;;;;22.43;13.05;99452.78;5076123;28;951;-80
2023/02/11 08:57:36;;;;;;;;;;;;;;;22.85;12.37;99451.69;5076043;28;856;-80
2023/02/11 09:00:01;;;;;;;;;;;;;;;22.47;12.92;99450.75;5075998;28;1909;-80
2023/02/11 09:02:27;;;;;;;;;;;;;;;22.66;12.69;99449.41;5076102;28;859;-80
2023/02/11 09:04:52;;;;;;;;;;;;;;;22.71;12.61;99446.91;5076078;28;1064;-80
2023/02/11 09:07:18;;;;;;;;;;;;;;;22.62;12.71;99436.03;5076539;28;1004;-80
2023/02/11 09:09:43;;;;;;;;;;;;;;;22.44;13.21;99437.41;5075660;28;1136;-80
2023/02/11 09:12:09;;;;;;;;;;;;;;;22.81;12.65;99439.53;5075916;28;965;-80
2023/02/11 09:14:34;;;;;;;;;;;;;;;22.56;12.88;99434.06;5076241;28;872;-80
2023/02/11 09:17:00;;;;;;;;;;;;;;;23.05;12.63;99438.53;5076217;28;884;-80
2023/02/11 09:19:25;;;;;;;;;;;;;;;22.75;12.74;99433.50;5075818;28;1977;-80
2023/02/11 09:21:51;;;;;;;;;;;;;;;22.77;12.67;99430.25;5075830;28;856;-80
2023/02/11 09:24:17;;;;;;;;;;;;;;;22.43;13.03;99424.44;5075912;28;892;-80
2023/02/11 09:26:42;;;;;;;;;;;;;;;23.04;12.48;99428.38;5075671;28;1173;-80
2023/02/11 09:29:08;;;;;;;;;;;;;;;22.73;13.16;99420.94;5075993;28;927;-80
2023/02/11 09:31:33;;;;;;;;;;;;;;;22.51;13.25;99426.00;5075819;28;916;-80
2023/02/11 09:34:00;;;;;;;;;;;;;;;22.36;13.49;99420.44;5075393;28;885;-80
2023/02/11 09:36:27;;;;;;;;;;;;;;;22.80;12.84;99416.03;5108129;28;1064;-80
2023/02/11 09:38:53;;;;;;;;;;;;;;;22.22;13.12;99417.69;5106741;28;895;-80
2023/02/11 09:41:37;;;;;;;;;;;;;;;22.74;13.04;99414.88;5108370;28;1972;-80
2023/02/11 09:44:03;;;;;;;;;;;;;;;22.44;12.99;99400.53;5075732;28;928;-80
2023/02/11 09:46:34;;;;;;;;;;;;;;;22.13;13.50;99406.03;5107895;28;920;-80
2023/02/11 09:48:59;;;;;;;;;;;;;;;22.66;12.87;99406.84;5107926;28;912;-80
2023/02/11 09:51:34;;;;;;;;;;;;;;;22.39;13.22;99401.78;5075710;28;938;-80
2023/02/11 09:54:00;;;;;;;;;;;;;;;22.22;13.41;99408.38;5075915;28;964;-80
2023/02/11 09:56:25;;;;;;;;;;;;;;;22.74;13.08;99400.69;5077199;28;1299;-80
2023/02/11 09:58:51;;;;;;;;;;;;;;;22.19;13.52;99404.34;5085933;28;1434;-80
2023/02/11 10:01:35;;;;;;;;;;;;;;;22.82;13.22;99396.53;5078364;28;1965;-80
2023/02/11 10:04:06;;;;;;;;;;;;;;;22.68;13.33;99391.00;5075583;28;1153;-80
2023/02/11 10:06:35;;;;;;;;;;;;;;;22.39;13.35;99389.66;5102499;28;1199;-80
2023/02/11 10:09:04;;;;;;;;;;;;;;;22.79;13.24;99386.03;5076207;28;1142;-80
2023/02/11 10:11:36;;;;;;;;;;;;;;;22.29;13.32;99385.66;5085384;28;1252;-80
2023/02/11 10:14:11;;;;;;;;;;;;;;;22.68;13.20;99381.69;5078704;28;935;-79
2023/02/11 10:16:45;;;;;;;;;;;;;;;22.31;13.70;99375.50;5072832;28;1684;-80
2023/02/11 10:19:24;;;;;;;;;;;;;;;22.69;13.06;99380.44;5090937;28;946;-80
2023/02/11 10:22:03;;;;;;;;;;;;;;;22.79;13.32;99369.00;5090796;28;1175;-81
2023/02/11 10:24:29;;;;;;;;;;;;;;;22.54;13.24;99362.78;5090725;28;947;-80
2023/02/11 10:26:54;;;;;;;;;;;;;;;22.63;13.13;99360.25;5091235;28;915;-80
2023/02/11 10:29:23;;;;;;;;;;;;;;;22.17;13.63;99355.75;5058718;28;943;-80
2023/02/11 10:31:49;;;;;;;;;;;;;;;22.60;13.39;99346.91;5090987;28;985;-80
2023/02/11 10:34:14;;;;;;;;;;;;;;;22.88;13.18;99348.69;5090800;28;938;-80
2023/02/11 10:36:40;;;;;;;;;;;;;;;22.87;13.12;99342.16;5058354;28;836;-80
2023/02/11 10:39:12;;;;;;;;;;;;;;;22.62;13.03;99341.59;5058060;28;949;-80
2023/02/11 10:41:38;;;;;;;;;;;;;;;22.72;13.20;99340.69;5058332;28;1910;-80
2023/02/11 10:44:05;;;;;;;;;;;;;;;22.92;13.01;99338.09;5090855;28;855;-80
2023/02/11 10:46:32;;;;;;;;;;;;;;;22.66;13.24;99348.06;5090512;28;886;-80
2023/02/11 10:48:57;;;;;;;;;;;;;;;22.52;13.63;99342.50;5090709;28;857;-80
2023/02/11 10:51:23;;;;;;;;;;;;;;;22.33;13.69;99339.03;5090055;28;941;-80
2023/02/11 10:54:12;;;;;;;;;;;;;;;22.70;13.46;99331.00;5057743;28;956;-80
2023/02/11 10:56:43;;;;;;;;;;;;;;;22.52;13.23;99331.16;5058056;28;988;-80
2023/02/11 10:59:24;;;;;;;;;;;;;;;22.87;13.55;99312.97;5057964;28;975;-80
2023/02/11 11:01:55;;;;;;;;;;;;;;;22.95;12.98;99313.72;5056628;28;911;-79
2023/02/11 11:04:31;;;;;;;;;;;;;;;22.61;13.67;99305.97;5058158;28;888;-80
2023/02/11 11:07:08;;;;;;;;;;;;;;;22.83;13.12;99301.66;5057154;28;1023;-79
2023/02/11 11:09:41;;;;;;;;;;;;;;;22.59;13.59;99309.22;5089402;28;866;-80
2023/02/11 11:12:22;;;;;;;;;;;;;;;22.35;13.79;99304.59;5072920;28;731;-80
2023/02/11 11:14:52;;;;;;;;;;;;;;;22.89;13.15;99302.03;5089774;28;842;-81
2023/02/11 11:17:18;;;;;;;;;;;;;;;22.40;13.74;99294.84;5089764;28;946;-81
2023/02/11 11:19:43;;;;;;;;;;;;;;;22.90;13.23;99282.97;5089482;28;1906;-80
2023/02/11 11:22:09;;;;;;;;;;;;;;;23.01;13.35;99290.16;5057811;28;924;-80
2023/02/11 11:24:39;;;;;;;;;;;;;;;22.92;13.35;99280.53;5089922;28;1416;-80
2023/02/11 11:27:04;;;;;;;;;;;;;;;22.55;13.80;99280.09;5089608;28;1001;-80
2023/02/11 11:29:44;;;;;;;;;;;;;;;22.44;13.81;99292.78;5057424;28;932;-80
2023/02/11 11:32:10;;;;;;;;;;;;;;;22.97;13.26;99282.91;5089733;28;879;-80
2023/02/11 11:34:47;;;;;;;;;;;;;;;22.31;13.70;99281.94;5057199;28;819;-81
2023/02/11 11:37:18;;;;;;;;;;;;;;;22.47;14.06;99272.06;5089647;28;948;-80
2023/02/11 11:39:43;;;;;;;;;;;;;;;22.65;13.53;99267.03;5057229;28;1910;-80
2023/02/11 11:42:25;;;;;;;;;;;;;;;22.61;13.78;99266.25;5062142;28;996;-80
2023/02/11 11:44:55;;;;;;;;;;;;;;;22.55;13.98;99262.25;5056722;28;905;-80
2023/02/11 11:47:23;;;;;;;;;;;;;;;21.90;14.42;99264.03;5090048;28;851;-81
2023/02/11 11:49:50;;;;;;;;;;;;;;;21.99;14.13;99259.50;5089836;28;952;-80
2023/02/11 11:52:38;;;;;;;;;;;;;;;22.60;14.04;99258.97;5089362;28;930;-81
2023/02/11 11:55:08;;;;;;;;;;;;;;;22.71;13.60;99253.97;5089395;28;1014;-80
2023/02/11 11:57:34;;;;;;;;;;;;;;;22.56;13.67;99241.19;5094894;28;969;-80
2023/02/11 12:00:00;;;;;;;;;;;;;;;22.81;13.50;99246.56;5094898;28;1986;-80
2023/02/11 12:02:25;;;;;;;;;;;;;;;22.43;14.07;99231.56;5094844;28;1158;-80
2023/02/11 12:04:54;;;;;;;;;;;;;;;22.55;13.88;99233.91;5094347;28;1033;-80
2023/02/11 12:07:39;;;;;;;;;;;;;;;22.72;13.59;99226.41;5078107;28;1331;-80
2023/02/11 12:10:13;;;;;;;;;;;;;;;22.58;13.98;99224.53;5094382;28;1017;-81
2023/02/11 12:12:38;;;;;;;;;;;;;;;22.38;13.95;99217.84;5094778;28;907;-81
2023/02/11 12:15:07;;;;;;;;;;;;;;;22.22;14.23;99222.06;5094548;28;1014;-81
2023/02/11 12:17:32;;;;;;;;;;;;;;;22.65;13.65;99215.16;5094367;28;1023;-81
2023/02/11 12:20:17;;;;;;;;;;;;;;;22.79;13.76;99204.41;5094179;28;1981;-81
2023/02/11 12:22:46;;;;;;;;;;;;;;;22.66;13.93;99211.88;5077658;28;1034;-81
2023/02/11 12:25:15;;;;;;;;;;;;;;;22.33;14.08;99205.78;5078094;28;900;-81
2023/02/11 12:27:40;;;;;;;;;;;;;;;22.73;13.96;99208.16;5072119;28;964;-81
2023/02/11 12:30:12;;;;;;;;;;;;;;;22.99;13.72;99201.75;5056454;28;853;-80
2023/02/11 12:32:48;;;;;;;;;;;;;;;22.86;13.92;99200.69;5056630;28;898;-81
2023/02/11 12:35:32;;;;;;;;;;;;;;;22.64;14.03;99208.69;5088438;28;887;-80
2023/02/11 12:38:04;;;;;;;;;;;;;;;22.53;13.82;99193.78;5056269;28;985;-81
2023/02/11 12:40:52;;;;;;;;;;;;;;;22.79;13.57;99187.38;5059972;28;1976;-80
2023/02/11 12:43:22;;;;;;;;;;;;;;;22.54;13.75;99192.59;5074703;28;1252;-81
2023/02/11 12:45:55;;;;;;;;;;;;;;;22.23;14.43;99192.50;5093755;28;1259;-81
2023/02/11 12:48:24;;;;;;;;;;;;;;;23.28;13.21;99184.34;5088350;28;880;-80
2023/02/11 12:50:58;;;;;;;;;;;;;;;22.69;13.77;99188.34;5070525;28;1094;-79
2023/02/11 12:53:23;;;;;;;;;;;;;;;22.22;14.16;99193.72;5073900;28;1180;-80
2023/02/11 12:55:50;;;;;;;;;;;;;;;22.68;13.92;99183.88;5075420;28;1205;-81
2023/02/11 12:58:20;;;;;;;;;;;;;;;22.68;13.93;99181.03;5082462;28;1405;-81
2023/02/11 13:00:50;;;;;;;;;;;;;;;23.26;13.47;99176.25;5074224;28;1926;-81
2023/02/11 13:03:23;;;;;;;;;;;;;;;22.64;14.11;99177.47;5073704;28;1196;-80
2023/02/11 13:05:50;;;;;;;;;;;;;;;22.18;14.30;99175.97;5099311;28;1609;-81
2023/02/11 13:08:31;;;;;;;;;;;;;;;22.86;13.93;99169.47;5074778;28;1260;-81